sensor_id;sensor_type;location;lat;lon;timestamp;pressure;altitude;pressure_sealevel;temperature;humidity
81641;BME280;74020;50.722;-1.944;2024-01-15T00:01:29;100713.18;;;4.89;72.20
81641;BME280;74020;50.722;-1.944;2024-01-15T00:03:54;100713.14;;;4.66;72.58
81641;BME280;74020;50.722;-1.944;2024-01-15T00:06:20;100714.49;;;4.39;74.57
81641;BME280;74020;50.722;-1.944;2024-01-15T00:08:46;100714.36;;;4.74;71.44
81641;BME280;74020;50.722;-1.944;2024-01-15T00:11:11;100715.67;;;4.43;74.12
81641;BME280;74020;50.722;-1.944;2024-01-15T00:13:37;100713.72;;;4.91;70.41
81641;BME280;74020;50.722;-1.944;2024-01-15T00:16:04;100709.07;;;4.76;71.65
81641;BME280;74020;50.722;-1.944;2024-01-15T00:18:28;100710.22;;;4.90;71.47
81641;BME280;74020;50.722;-1.944;2024-01-15T00:20:54;100704.75;;;4.91;69.70
81641;BME280;74020;50.722;-1.944;2024-01-15T00:23:20;100705.66;;;4.90;69.88
81641;BME280;74020;50.722;-1.944;2024-01-15T00:25:45;100707.75;;;4.65;73.23
81641;BME280;74020;50.722;-1.944;2024-01-15T00:28:11;100706.61;;;4.77;71.98
81641;BME280;74020;50.722;-1.944;2024-01-15T00:30:38;100702.73;;;5.12;68.95
81641;BME280;74020;50.722;-1.944;2024-01-15T00:33:02;100704.58;;;4.77;70.62
81641;BME280;74020;50.722;-1.944;2024-01-15T00:35:28;100704.99;;;4.72;71.89
81641;BME280;74020;50.722;-1.944;2024-01-15T00:37:53;100706.05;;;4.79;69.14
81641;BME280;74020;50.722;-1.944;2024-01-15T00:40:19;100703.64;;;5.05;68.40
81641;BME280;74020;50.722;-1.944;2024-01-15T00:42:45;100700.37;;;5.22;67.64
81641;BME280;74020;50.722;-1.944;2024-01-15T00:45:10;100702.01;;;4.78;70.25
81641;BME280;74020;50.722;-1.944;2024-01-15T00:47:36;100698.25;;;5.19;67.14
81641;BME280;74020;50.722;-1.944;2024-01-15T00:50:02;100692.71;;;5.26;67.49
81641;BME280;74020;50.722;-1.944;2024-01-15T00:52:27;100693.17;;;4.87;70.03
81641;BME280;74020;50.722;-1.944;2024-01-15T00:54:53;100693.52;;;5.03;67.81
81641;BME280;74020;50.722;-1.944;2024-01-15T00:57:18;100693.74;;;4.58;70.00
81641;BME280;74020;50.722;-1.944;2024-01-15T00:59:44;100695.60;;;4.87;69.87
81641;BME280;74020;50.722;-1.944;2024-01-15T01:02:10;100690.84;;;4.85;68.46
81641;BME280;74020;50.722;-1.944;2024-01-15T01:04:35;100683.44;;;5.12;65.47
81641;BME280;74020;50.722;-1.944;2024-01-15T01:07:01;100682.94;;;5.29;64.24
81641;BME280;74020;50.722;-1.944;2024-01-15T01:09:27;100679.43;;;5.14;64.49
81641;BME280;74020;50.722;-1.944;2024-01-15T01:11:52;100675.28;;;5.27;64.76
81641;BME280;74020;50.722;-1.944;2024-01-15T01:14:18;100672.00;;;5.45;64.13
81641;BME280;74020;50.722;-1.944;2024-01-15T01:16:45;100668.25;;;5.41;64.53
81641;BME280;74020;50.722;-1.944;2024-01-15T01:19:09;100668.68;;;5.57;63.83
81641;BME280;74020;50.722;-1.944;2024-01-15T01:21:35;100670.66;;;5.26;64.96
81641;BME280;74020;50.722;-1.944;2024-01-15T01:24:00;100668.14;;;5.66;63.06
81641;BME280;74020;50.722;-1.944;2024-01-15T01:26:26;100667.67;;;5.65;63.04
81641;BME280;74020;50.722;-1.944;2024-01-15T01:28:53;100667.14;;;5.48;64.01
81641;BME280;74020;50.722;-1.944;2024-01-15T01:31:17;100669.04;;;5.68;64.16
81641;BME280;74020;50.722;-1.944;2024-01-15T01:33:43;100670.18;;;5.53;65.29
81641;BME280;74020;50.722;-1.944;2024-01-15T01:36:09;100666.91;;;5.68;65.08
81641;BME280;74020;50.722;-1.944;2024-01-15T01:38:34;100667.04;;;5.28;67.26
81641;BME280;74020;50.722;-1.944;2024-01-15T01:41:00;100669.17;;;5.42;67.64
81641;BME280;74020;50.722;-1.944;2024-01-15T01:43:25;100670.24;;;5.65;66.58
81641;BME280;74020;50.722;-1.944;2024-01-15T01:45:51;100669.04;;;5.76;65.71
81641;BME280;74020;50.722;-1.944;2024-01-15T01:48:17;100667.98;;;5.23;68.55
81641;BME280;74020;50.722;-1.944;2024-01-15T01:50:42;100665.75;;;4.99;70.66
81641;BME280;74020;50.722;-1.944;2024-01-15T01:53:08;100667.47;;;5.06;71.07
81641;BME280;74020;50.722;-1.944;2024-01-15T01:55:35;100666.88;;;5.49;69.53
81641;BME280;74020;50.722;-1.944;2024-01-15T01:57:59;100665.47;;;5.52;69.61
81641;BME280;74020;50.722;-1.944;2024-01-15T02:00:25;100666.87;;;5.40;71.19
81641;BME280;74020;50.722;-1.944;2024-01-15T02:02:50;100668.11;;;5.59;70.60
81641;BME280;74020;50.722;-1.944;2024-01-15T02:05:19;100670.35;;;5.62;70.74
81641;BME280;74020;50.722;-1.944;2024-01-15T02:07:42;100668.17;;;5.68;70.86
81641;BME280;74020;50.722;-1.944;2024-01-15T02:10:08;100669.42;;;5.30;73.16
81641;BME280;74020;50.722;-1.944;2024-01-15T02:12:33;100667.41;;;5.54;72.60
81641;BME280;74020;50.722;-1.944;2024-01-15T02:14:59;100662.71;;;4.94;75.77
81641;BME280;74020;50.722;-1.944;2024-01-15T02:17:24;100659.70;;;5.30;74.64
81641;BME280;74020;50.722;-1.944;2024-01-15T02:19:50;100655.03;;;5.43;74.32
81641;BME280;74020;50.722;-1.944;2024-01-15T02:22:15;100653.12;;;5.03;76.98
81641;BME280;74020;50.722;-1.944;2024-01-15T02:24:41;100652.80;;;5.10;77.08
81641;BME280;74020;50.722;-1.944;2024-01-15T02:27:07;100652.14;;;5.05;77.65
81641;BME280;74020;50.722;-1.944;2024-01-15T02:29:33;100657.22;;;4.71;79.33
81641;BME280;74020;50.722;-1.944;2024-01-15T02:31:58;100653.04;;;4.93;77.57
81641;BME280;74020;50.722;-1.944;2024-01-15T02:34:24;100652.63;;;4.72;79.39
81641;BME280;74020;50.722;-1.944;2024-01-15T02:36:49;100648.16;;;4.53;80.85
81641;BME280;74020;50.722;-1.944;2024-01-15T02:39:15;100648.35;;;4.24;81.97
81641;BME280;74020;50.722;-1.944;2024-01-15T02:41:42;100651.40;;;4.45;82.14
81641;BME280;74020;50.722;-1.944;2024-01-15T02:44:06;100652.65;;;4.74;81.18
81641;BME280;74020;50.722;-1.944;2024-01-15T02:46:32;100654.21;;;4.90;79.64
81641;BME280;74020;50.722;-1.944;2024-01-15T02:48:57;100659.98;;;4.69;81.79
81641;BME280;74020;50.722;-1.944;2024-01-15T02:51:23;100656.99;;;4.38;82.43
81641;BME280;74020;50.722;-1.944;2024-01-15T02:53:49;100651.77;;;4.36;83.16
81641;BME280;74020;50.722;-1.944;2024-01-15T02:56:14;100654.28;;;4.34;83.61
81641;BME280;74020;50.722;-1.944;2024-01-15T02:58:39;100654.78;;;4.32;83.24
81641;BME280;74020;50.722;-1.944;2024-01-15T03:01:05;100649.08;;;4.74;80.97
81641;BME280;74020;50.722;-1.944;2024-01-15T03:03:31;100644.03;;;4.93;79.83
81641;BME280;74020;50.722;-1.944;2024-01-15T03:05:56;100639.95;;;5.11;78.61
81641;BME280;74020;50.722;-1.944;2024-01-15T03:08:22;100637.72;;;5.01;79.37
81641;BME280;74020;50.722;-1.944;2024-01-15T03:10:48;100641.24;;;5.11;78.14
81641;BME280;74020;50.722;-1.944;2024-01-15T03:13:13;100640.62;;;4.99;78.71
81641;BME280;74020;50.722;-1.944;2024-01-15T03:15:39;100647.77;;;5.31;77.61
81641;BME280;74020;50.722;-1.944;2024-01-15T03:18:06;100646.08;;;4.93;79.39
81641;BME280;74020;50.722;-1.944;2024-01-15T03:20:30;100642.29;;;5.04;77.77
81641;BME280;74020;50.722;-1.944;2024-01-15T03:22:56;100641.29;;;5.00;79.96
81641;BME280;74020;50.722;-1.944;2024-01-15T03:25:21;100638.98;;;4.79;81.64
81641;BME280;74020;50.722;-1.944;2024-01-15T03:27:47;100636.51;;;5.24;78.64
81641;BME280;74020;50.722;-1.944;2024-01-15T03:30:13;100638.78;;;5.21;76.78
81641;BME280;74020;50.722;-1.944;2024-01-15T03:32:38;100637.04;;;5.34;77.36
81641;BME280;74020;50.722;-1.944;2024-01-15T03:35:05;100638.33;;;5.33;76.08
81641;BME280;74020;50.722;-1.944;2024-01-15T03:37:30;100635.23;;;5.44;75.96
81641;BME280;74020;50.722;-1.944;2024-01-15T03:39:55;100634.25;;;5.56;75.55
81641;BME280;74020;50.722;-1.944;2024-01-15T03:42:21;100629.24;;;5.08;77.51
81641;BME280;74020;50.722;-1.944;2024-01-15T03:44:47;100628.05;;;5.33;75.82
81641;BME280;74020;50.722;-1.944;2024-01-15T03:47:12;100622.58;;;5.26;75.85
81641;BME280;74020;50.722;-1.944;2024-01-15T03:49:38;100617.81;;;4.73;78.20
81641;BME280;74020;50.722;-1.944;2024-01-15T03:52:04;100616.45;;;4.35;74.01
81641;BME280;74020;50.722;-1.944;2024-01-15T03:54:29;100612.98;;;4.66;71.57
81641;BME280;74020;50.722;-1.944;2024-01-15T03:56:55;100617.70;;;4.59;68.14
81641;BME280;74020;50.722;-1.944;2024-01-15T03:59:20;100616.74;;;4.74;67.00
81641;BME280;74020;50.722;-1.944;2024-01-15T04:01:48;100617.24;;;4.65;66.16
81641;BME280;74020;50.722;-1.944;2024-01-15T04:04:12;100614.18;;;4.64;66.58
81641;BME280;74020;50.722;-1.944;2024-01-15T04:06:38;100613.27;;;4.71;66.57
81641;BME280;74020;50.722;-1.944;2024-01-15T04:09:03;100608.88;;;4.72;65.48
81641;BME280;74020;50.722;-1.944;2024-01-15T04:11:29;100607.05;;;4.73;66.04
81641;BME280;74020;50.722;-1.944;2024-01-15T04:13:54;100604.51;;;4.81;65.84
81641;BME280;74020;50.722;-1.944;2024-01-15T04:16:20;100600.75;;;4.80;65.81
81641;BME280;74020;50.722;-1.944;2024-01-15T04:18:46;100602.96;;;4.81;65.03
81641;BME280;74020;50.722;-1.944;2024-01-15T04:21:11;100601.24;;;4.87;65.18
81641;BME280;74020;50.722;-1.944;2024-01-15T04:23:37;100602.30;;;4.87;65.61
81641;BME280;74020;50.722;-1.944;2024-01-15T04:26:03;100605.39;;;4.66;65.83
81641;BME280;74020;50.722;-1.944;2024-01-15T04:28:28;100600.90;;;4.69;65.83
81641;BME280;74020;50.722;-1.944;2024-01-15T04:30:54;100593.57;;;4.66;66.19
81641;BME280;74020;50.722;-1.944;2024-01-15T04:33:19;100591.38;;;4.70;66.61
81641;BME280;74020;50.722;-1.944;2024-01-15T04:35:45;100590.17;;;4.69;66.91
81641;BME280;74020;50.722;-1.944;2024-01-15T04:38:11;100588.82;;;4.62;67.28
81641;BME280;74020;50.722;-1.944;2024-01-15T04:40:36;100586.76;;;4.50;67.99
81641;BME280;74020;50.722;-1.944;2024-01-15T04:43:02;100585.08;;;4.45;68.04
81641;BME280;74020;50.722;-1.944;2024-01-15T04:45:28;100584.77;;;4.58;66.98
81641;BME280;74020;50.722;-1.944;2024-01-15T04:47:53;100585.41;;;4.53;67.49
81641;BME280;74020;50.722;-1.944;2024-01-15T04:50:19;100583.41;;;4.61;66.84
81641;BME280;74020;50.722;-1.944;2024-01-15T04:52:45;100586.87;;;4.65;67.14
81641;BME280;74020;50.722;-1.944;2024-01-15T04:55:10;100585.95;;;4.65;67.17
81641;BME280;74020;50.722;-1.944;2024-01-15T04:57:36;100585.32;;;4.68;66.88
81641;BME280;74020;50.722;-1.944;2024-01-15T05:00:02;100589.69;;;4.55;66.98
81641;BME280;74020;50.722;-1.944;2024-01-15T05:02:27;100592.60;;;4.61;66.36
81641;BME280;74020;50.722;-1.944;2024-01-15T05:04:53;100590.07;;;4.68;67.37
81641;BME280;74020;50.722;-1.944;2024-01-15T05:07:19;100588.36;;;4.71;66.97
81641;BME280;74020;50.722;-1.944;2024-01-15T05:09:44;100592.07;;;4.75;66.62
81641;BME280;74020;50.722;-1.944;2024-01-15T05:12:10;100590.65;;;4.75;66.51
81641;BME280;74020;50.722;-1.944;2024-01-15T05:14:35;100593.83;;;4.75;67.04
81641;BME280;74020;50.722;-1.944;2024-01-15T05:17:01;100591.42;;;4.73;66.50
81641;BME280;74020;50.722;-1.944;2024-01-15T05:19:27;100591.54;;;4.76;66.62
81641;BME280;74020;50.722;-1.944;2024-01-15T05:21:52;100590.76;;;4.69;66.77
81641;BME280;74020;50.722;-1.944;2024-01-15T05:24:18;100592.99;;;4.85;66.08
81641;BME280;74020;50.722;-1.944;2024-01-15T05:26:44;100596.67;;;4.89;64.95
81641;BME280;74020;50.722;-1.944;2024-01-15T05:29:09;100600.59;;;4.91;65.25
81641;BME280;74020;50.722;-1.944;2024-01-15T05:31:36;100602.75;;;4.84;64.94
81641;BME280;74020;50.722;-1.944;2024-01-15T05:34:01;100601.42;;;4.83;64.56
81641;BME280;74020;50.722;-1.944;2024-01-15T05:36:26;100600.33;;;4.65;66.00
81641;BME280;74020;50.722;-1.944;2024-01-15T05:38:52;100597.81;;;4.55;66.12
81641;BME280;74020;50.722;-1.944;2024-01-15T05:41:19;100600.13;;;4.56;66.32
81641;BME280;74020;50.722;-1.944;2024-01-15T05:43:43;100603.13;;;4.62;65.69
81641;BME280;74020;50.722;-1.944;2024-01-15T05:46:09;100610.36;;;4.48;66.07
81641;BME280;74020;50.722;-1.944;2024-01-15T05:48:35;100610.93;;;4.52;66.30
81641;BME280;74020;50.722;-1.944;2024-01-15T05:51:00;100610.22;;;4.40;66.34
81641;BME280;74020;50.722;-1.944;2024-01-15T05:53:26;100614.27;;;4.36;66.16
81641;BME280;74020;50.722;-1.944;2024-01-15T05:55:51;100619.77;;;4.33;67.02
81641;BME280;74020;50.722;-1.944;2024-01-15T05:58:17;100615.93;;;4.29;66.89
81641;BME280;74020;50.722;-1.944;2024-01-15T06:00:43;100619.81;;;4.34;67.41
81641;BME280;74020;50.722;-1.944;2024-01-15T06:03:08;100618.24;;;4.27;67.90
81641;BME280;74020;50.722;-1.944;2024-01-15T06:05:34;100621.67;;;4.06;67.95
81641;BME280;74020;50.722;-1.944;2024-01-15T06:08:00;100623.89;;;4.04;68.55
81641;BME280;74020;50.722;-1.944;2024-01-15T06:10:26;100623.97;;;3.98;69.10
81641;BME280;74020;50.722;-1.944;2024-01-15T06:12:51;100627.00;;;4.02;69.06
81641;BME280;74020;50.722;-1.944;2024-01-15T06:15:17;100622.18;;;3.72;70.29
81641;BME280;74020;50.722;-1.944;2024-01-15T06:17:42;100623.01;;;3.65;70.74
81641;BME280;74020;50.722;-1.944;2024-01-15T06:20:09;100626.88;;;3.50;71.65
81641;BME280;74020;50.722;-1.944;2024-01-15T06:22:34;100626.74;;;3.52;71.70
81641;BME280;74020;50.722;-1.944;2024-01-15T06:24:59;100630.58;;;3.54;71.77
81641;BME280;74020;50.722;-1.944;2024-01-15T06:27:25;100631.04;;;3.47;72.29
81641;BME280;74020;50.722;-1.944;2024-01-15T06:29:51;100637.59;;;3.37;72.53
81641;BME280;74020;50.722;-1.944;2024-01-15T06:32:16;100639.09;;;3.29;72.70
81641;BME280;74020;50.722;-1.944;2024-01-15T06:34:42;100642.17;;;3.15;73.77
81641;BME280;74020;50.722;-1.944;2024-01-15T06:37:08;100640.34;;;3.10;74.25
81641;BME280;74020;50.722;-1.944;2024-01-15T06:39:35;100636.43;;;3.15;74.44
81641;BME280;74020;50.722;-1.944;2024-01-15T06:41:59;100635.67;;;3.05;74.62
81641;BME280;74020;50.722;-1.944;2024-01-15T06:44:25;100634.82;;;2.95;75.14
81641;BME280;74020;50.722;-1.944;2024-01-15T06:46:51;100640.81;;;2.98;75.38
81641;BME280;74020;50.722;-1.944;2024-01-15T06:49:16;100649.75;;;3.00;75.51
81641;BME280;74020;50.722;-1.944;2024-01-15T06:51:42;100639.28;;;2.90;75.58
81641;BME280;74020;50.722;-1.944;2024-01-15T06:54:08;100637.37;;;2.84;75.96
81641;BME280;74020;50.722;-1.944;2024-01-15T06:56:34;100649.60;;;2.77;76.28
81641;BME280;74020;50.722;-1.944;2024-01-15T06:58:59;100641.97;;;2.75;76.54
81641;BME280;74020;50.722;-1.944;2024-01-15T07:01:25;100651.00;;;2.73;76.54
81641;BME280;74020;50.722;-1.944;2024-01-15T07:03:51;100648.94;;;2.71;76.82
81641;BME280;74020;50.722;-1.944;2024-01-15T07:06:16;100649.07;;;2.72;76.88
81641;BME280;74020;50.722;-1.944;2024-01-15T07:08:42;100647.42;;;2.71;77.09
81641;BME280;74020;50.722;-1.944;2024-01-15T07:11:08;100645.51;;;2.69;77.38
81641;BME280;74020;50.722;-1.944;2024-01-15T07:13:34;100653.40;;;2.58;77.39
81641;BME280;74020;50.722;-1.944;2024-01-15T07:15:59;100652.40;;;2.59;77.71
81641;BME280;74020;50.722;-1.944;2024-01-15T07:18:25;100652.67;;;2.48;77.60
81641;BME280;74020;50.722;-1.944;2024-01-15T07:20:51;100654.70;;;2.37;78.88
81641;BME280;74020;50.722;-1.944;2024-01-15T07:23:17;100657.19;;;2.34;78.36
81641;BME280;74020;50.722;-1.944;2024-01-15T07:25:43;100666.59;;;2.27;79.61
81641;BME280;74020;50.722;-1.944;2024-01-15T07:28:08;100663.17;;;2.33;78.33
81641;BME280;74020;50.722;-1.944;2024-01-15T07:30:34;100661.55;;;2.02;80.15
81641;BME280;74020;50.722;-1.944;2024-01-15T07:33:00;100668.58;;;2.30;78.47
81641;BME280;74020;50.722;-1.944;2024-01-15T07:35:25;100661.17;;;2.37;78.05
81641;BME280;74020;50.722;-1.944;2024-01-15T07:37:51;100659.61;;;2.42;77.60
81641;BME280;74020;50.722;-1.944;2024-01-15T07:40:17;100669.41;;;2.24;78.26
81641;BME280;74020;50.722;-1.944;2024-01-15T07:42:43;100671.61;;;2.25;77.43
81641;BME280;74020;50.722;-1.944;2024-01-15T07:45:09;100674.61;;;2.19;78.31
81641;BME280;74020;50.722;-1.944;2024-01-15T07:47:34;100685.56;;;2.32;77.32
81641;BME280;74020;50.722;-1.944;2024-01-15T07:50:00;100690.86;;;2.19;77.62
81641;BME280;74020;50.722;-1.944;2024-01-15T07:52:26;100690.92;;;2.24;78.41
81641;BME280;74020;50.722;-1.944;2024-01-15T07:54:51;100691.42;;;2.18;78.17
81641;BME280;74020;50.722;-1.944;2024-01-15T07:57:17;100690.74;;;2.20;77.73
81641;BME280;74020;50.722;-1.944;2024-01-15T07:59:43;100690.64;;;2.09;78.46
81641;BME280;74020;50.722;-1.944;2024-01-15T08:02:09;100692.24;;;2.07;78.47
81641;BME280;74020;50.722;-1.944;2024-01-15T08:04:34;100696.23;;;2.02;78.76
81641;BME280;74020;50.722;-1.944;2024-01-15T08:07:00;100699.26;;;2.02;79.01
81641;BME280;74020;50.722;-1.944;2024-01-15T08:09:26;100701.49;;;1.99;78.98
81641;BME280;74020;50.722;-1.944;2024-01-15T08:11:52;100708.02;;;1.96;78.80
81641;BME280;74020;50.722;-1.944;2024-01-15T08:14:18;100708.33;;;1.86;78.86
81641;BME280;74020;50.722;-1.944;2024-01-15T08:16:43;100701.81;;;1.79;79.93
81641;BME280;74020;50.722;-1.944;2024-01-15T08:19:09;100702.97;;;1.95;78.88
81641;BME280;74020;50.722;-1.944;2024-01-15T08:21:35;100702.75;;;1.81;79.14
81641;BME280;74020;50.722;-1.944;2024-01-15T08:24:01;100705.60;;;1.76;79.68
81641;BME280;74020;50.722;-1.944;2024-01-15T08:26:26;100705.55;;;1.93;79.15
81641;BME280;74020;50.722;-1.944;2024-01-15T08:28:52;100710.10;;;1.87;79.29
81641;BME280;74020;50.722;-1.944;2024-01-15T08:31:18;100714.28;;;1.91;79.68
81641;BME280;74020;50.722;-1.944;2024-01-15T08:33:45;100714.04;;;2.06;78.51
81641;BME280;74020;50.722;-1.944;2024-01-15T08:36:09;100716.09;;;2.03;78.60
81641;BME280;74020;50.722;-1.944;2024-01-15T08:38:35;100716.16;;;2.08;78.30
81641;BME280;74020;50.722;-1.944;2024-01-15T08:41:01;100717.39;;;2.09;78.02
81641;BME280;74020;50.722;-1.944;2024-01-15T08:43:26;100718.23;;;2.07;77.98
81641;BME280;74020;50.722;-1.944;2024-01-15T08:45:52;100712.62;;;2.09;78.08
81641;BME280;74020;50.722;-1.944;2024-01-15T08:48:18;100710.11;;;1.92;78.46
81641;BME280;74020;50.722;-1.944;2024-01-15T08:50:44;100713.76;;;1.79;79.56
81641;BME280;74020;50.722;-1.944;2024-01-15T08:53:10;100715.44;;;1.95;78.49
81641;BME280;74020;50.722;-1.944;2024-01-15T08:55:35;100723.38;;;2.03;77.60
81641;BME280;74020;50.722;-1.944;2024-01-15T08:58:01;100725.69;;;1.99;77.89
81641;BME280;74020;50.722;-1.944;2024-01-15T09:00:27;100722.56;;;2.12;77.33
81641;BME280;74020;50.722;-1.944;2024-01-15T09:02:53;100728.54;;;2.13;77.37
81641;BME280;74020;50.722;-1.944;2024-01-15T09:05:18;100732.08;;;2.09;76.82
81641;BME280;74020;50.722;-1.944;2024-01-15T09:07:44;100733.11;;;2.12;76.93
81641;BME280;74020;50.722;-1.944;2024-01-15T09:10:10;100734.65;;;2.15;76.81
81641;BME280;74020;50.722;-1.944;2024-01-15T09:12:36;100739.30;;;2.15;76.62
81641;BME280;74020;50.722;-1.944;2024-01-15T09:15:02;100734.30;;;2.14;76.08
81641;BME280;74020;50.722;-1.944;2024-01-15T09:17:27;100731.24;;;2.16;76.07
81641;BME280;74020;50.722;-1.944;2024-01-15T09:19:53;100735.45;;;2.21;75.23
81641;BME280;74020;50.722;-1.944;2024-01-15T09:22:19;100733.14;;;2.07;76.73
81641;BME280;74020;50.722;-1.944;2024-01-15T09:24:45;100736.93;;;1.95;77.75
81641;BME280;74020;50.722;-1.944;2024-01-15T09:27:10;100740.39;;;2.20;76.09
81641;BME280;74020;50.722;-1.944;2024-01-15T09:29:36;100740.62;;;2.17;75.68
81641;BME280;74020;50.722;-1.944;2024-01-15T09:32:02;100744.20;;;2.27;75.56
81641;BME280;74020;50.722;-1.944;2024-01-15T09:34:28;100742.51;;;2.35;75.44
81641;BME280;74020;50.722;-1.944;2024-01-15T09:36:53;100741.36;;;2.38;75.26
81641;BME280;74020;50.722;-1.944;2024-01-15T09:39:19;100745.70;;;2.51;75.35
81641;BME280;74020;50.722;-1.944;2024-01-15T09:41:45;100751.71;;;2.58;74.98
81641;BME280;74020;50.722;-1.944;2024-01-15T09:44:12;100756.11;;;2.67;74.20
81641;BME280;74020;50.722;-1.944;2024-01-15T09:46:37;100756.53;;;2.77;73.66
81641;BME280;74020;50.722;-1.944;2024-01-15T09:49:02;100756.33;;;2.81;73.36
81641;BME280;74020;50.722;-1.944;2024-01-15T09:51:31;100754.83;;;2.90;73.21
81641;BME280;74020;50.722;-1.944;2024-01-15T09:53:55;100757.51;;;3.08;72.00
81641;BME280;74020;50.722;-1.944;2024-01-15T09:56:19;100759.56;;;3.08;71.78
81641;BME280;74020;50.722;-1.944;2024-01-15T09:58:45;100758.45;;;3.09;70.85
81641;BME280;74020;50.722;-1.944;2024-01-15T10:01:11;100757.58;;;3.09;70.57
81641;BME280;74020;50.722;-1.944;2024-01-15T10:03:37;100763.93;;;2.99;72.03
81641;BME280;74020;50.722;-1.944;2024-01-15T10:06:03;100766.69;;;2.95;71.95
81641;BME280;74020;50.722;-1.944;2024-01-15T10:08:28;100769.27;;;3.02;71.67
81641;BME280;74020;50.722;-1.944;2024-01-15T10:10:53;100768.89;;;3.05;72.92
81641;BME280;74020;50.722;-1.944;2024-01-15T10:13:19;100769.02;;;3.31;70.94
81641;BME280;74020;50.722;-1.944;2024-01-15T10:15:46;100774.82;;;3.42;69.55
81641;BME280;74020;50.722;-1.944;2024-01-15T10:18:10;100774.29;;;3.39;69.85
81641;BME280;74020;50.722;-1.944;2024-01-15T10:20:36;100775.27;;;3.39;69.45
81641;BME280;74020;50.722;-1.944;2024-01-15T10:23:03;100774.16;;;3.57;68.91
81641;BME280;74020;50.722;-1.944;2024-01-15T10:25:28;100776.47;;;3.45;69.03
81641;BME280;74020;50.722;-1.944;2024-01-15T10:28:00;100781.28;;;3.59;68.05
81641;BME280;74020;50.722;-1.944;2024-01-15T10:30:19;100788.12;;;3.51;68.50
81641;BME280;74020;50.722;-1.944;2024-01-15T10:35:10;100794.60;;;3.61;66.85
81641;BME280;74020;50.722;-1.944;2024-01-15T10:37:36;100795.19;;;3.72;67.66
81641;BME280;74020;50.722;-1.944;2024-01-15T10:40:03;100798.12;;;3.63;66.38
81641;BME280;74020;50.722;-1.944;2024-01-15T10:42:27;100800.08;;;3.71;66.81
81641;BME280;74020;50.722;-1.944;2024-01-15T10:44:53;100807.26;;;3.75;66.61
81641;BME280;74020;50.722;-1.944;2024-01-15T10:47:19;100804.42;;;3.86;65.64
81641;BME280;74020;50.722;-1.944;2024-01-15T10:49:46;100803.33;;;3.90;66.05
81641;BME280;74020;50.722;-1.944;2024-01-15T10:52:10;100805.63;;;3.87;65.34
81641;BME280;74020;50.722;-1.944;2024-01-15T10:54:37;100805.98;;;3.97;64.80
81641;BME280;74020;50.722;-1.944;2024-01-15T10:57:02;100810.86;;;3.88;65.23
81641;BME280;74020;50.722;-1.944;2024-01-15T10:59:27;100808.87;;;3.98;64.95
81641;BME280;74020;50.722;-1.944;2024-01-15T11:01:53;100810.33;;;4.15;64.60
81641;BME280;74020;50.722;-1.944;2024-01-15T11:04:19;100807.92;;;4.25;64.00
81641;BME280;74020;50.722;-1.944;2024-01-15T11:06:46;100806.72;;;4.06;64.71
81641;BME280;74020;50.722;-1.944;2024-01-15T11:09:10;100806.58;;;3.92;65.44
81641;BME280;74020;50.722;-1.944;2024-01-15T11:11:36;100804.04;;;3.96;65.69
81641;BME280;74020;50.722;-1.944;2024-01-15T11:14:01;100797.29;;;4.07;66.30
81641;BME280;74020;50.722;-1.944;2024-01-15T11:19:02;100798.86;;;4.23;64.98
81641;BME280;74020;50.722;-1.944;2024-01-15T11:21:22;100798.43;;;4.24;65.10
81641;BME280;74020;50.722;-1.944;2024-01-15T11:23:45;100800.55;;;4.35;64.59
81641;BME280;74020;50.722;-1.944;2024-01-15T11:28:48;100798.25;;;4.47;63.82
81641;BME280;74020;50.722;-1.944;2024-01-15T11:31:03;100802.79;;;4.38;64.14
81641;BME280;74020;50.722;-1.944;2024-01-15T11:33:33;100809.62;;;4.27;65.48
81641;BME280;74020;50.722;-1.944;2024-01-15T11:35:52;100808.90;;;4.35;64.02
81641;BME280;74020;50.722;-1.944;2024-01-15T11:38:27;100809.53;;;4.10;65.52
81641;BME280;74020;50.722;-1.944;2024-01-15T11:40:44;100807.10;;;4.16;65.89
81641;BME280;74020;50.722;-1.944;2024-01-15T11:43:09;100805.29;;;4.27;64.19
81641;BME280;74020;50.722;-1.944;2024-01-15T11:45:35;100801.70;;;4.39;64.18
81641;BME280;74020;50.722;-1.944;2024-01-15T11:48:09;100801.17;;;4.26;65.06
81641;BME280;74020;50.722;-1.944;2024-01-15T11:50:27;100798.64;;;4.41;64.26
81641;BME280;74020;50.722;-1.944;2024-01-15T11:52:58;100801.44;;;4.42;64.20
81641;BME280;74020;50.722;-1.944;2024-01-15T11:55:22;100802.13;;;4.37;65.28
81641;BME280;74020;50.722;-1.944;2024-01-15T11:57:47;100801.09;;;4.41;64.05
81641;BME280;74020;50.722;-1.944;2024-01-15T12:00:09;100798.42;;;4.49;64.52
81641;BME280;74020;50.722;-1.944;2024-01-15T12:02:34;100796.66;;;4.52;62.77
81641;BME280;74020;50.722;-1.944;2024-01-15T12:05:00;100800.75;;;4.45;62.12
81641;BME280;74020;50.722;-1.944;2024-01-15T12:07:25;100807.26;;;4.45;62.22
81641;BME280;74020;50.722;-1.944;2024-01-15T12:09:51;100810.40;;;4.36;61.51
81641;BME280;74020;50.722;-1.944;2024-01-15T12:12:21;100815.22;;;4.30;61.71
81641;BME280;74020;50.722;-1.944;2024-01-15T12:14:42;100820.85;;;4.61;59.51
81641;BME280;74020;50.722;-1.944;2024-01-15T12:17:08;100826.09;;;4.53;58.35
81641;BME280;74020;50.722;-1.944;2024-01-15T12:19:34;100821.01;;;4.67;58.34
81641;BME280;74020;50.722;-1.944;2024-01-15T12:21:59;100825.91;;;4.80;57.74
81641;BME280;74020;50.722;-1.944;2024-01-15T12:24:25;100819.12;;;4.83;56.29
81641;BME280;74020;50.722;-1.944;2024-01-15T12:26:50;100825.56;;;4.65;57.79
81641;BME280;74020;50.722;-1.944;2024-01-15T12:29:18;100822.07;;;4.57;58.20
81641;BME280;74020;50.722;-1.944;2024-01-15T12:31:41;100817.61;;;4.55;56.28
81641;BME280;74020;50.722;-1.944;2024-01-15T12:34:11;100826.50;;;4.72;55.42
81641;BME280;74020;50.722;-1.944;2024-01-15T12:36:33;100825.62;;;4.63;55.90
81641;BME280;74020;50.722;-1.944;2024-01-15T12:38:59;100823.67;;;4.36;58.39
81641;BME280;74020;50.722;-1.944;2024-01-15T12:41:24;100827.29;;;4.21;58.58
81641;BME280;74020;50.722;-1.944;2024-01-15T12:43:50;100828.14;;;4.26;59.10
81641;BME280;74020;50.722;-1.944;2024-01-15T12:46:15;100827.34;;;4.27;59.27
81641;BME280;74020;50.722;-1.944;2024-01-15T12:48:41;100824.76;;;4.32;56.64